< Typhoon 197616 1976 Season Typhoon 197618 >
Typhoon 197617 (FRAN)
General InformationTrack Information on Google Maps || NewsDisaster Info.ResourceGoogle EarthGE AnimationAtom FeedGeoJSON
Detalied Best Track (Time Zone = UTC)
Year Month Day Hour Lat. Long. Pressure (hPa) Wind (kt) Class Image Chart
1976 9 3 00 9.0 153.0 1004 0 2 -- Chart
1976 9 3 06 9.0 152.0 1002 0 2 -- Chart
1976 9 3 12 9.0 151.0 1002 0 2 -- Chart
1976 9 3 18 9.0 150.0 1000 0 2 -- Chart
1976 9 4 00 9.3 149.2 1000 0 2 -- Chart
1976 9 4 06 9.8 148.5 998 0 9 -- Chart
1976 9 4 12 10.2 147.6 998 0 9 -- Chart
1976 9 4 18 11.2 146.6 998 0 9 -- Chart
1976 9 5 00 12.2 145.5 994 0 9 -- Chart
1976 9 5 06 13.0 144.6 985 0 9 -- Chart
1976 9 5 12 13.9 143.9 985 0 9 -- Chart
1976 9 5 18 14.8 142.9 985 0 9 -- Chart
1976 9 6 00 15.7 142.0 980 0 9 -- Chart
1976 9 6 06 16.7 140.9 970 0 9 -- Chart
1976 9 6 12 18.0 139.5 960 0 9 -- Chart
1976 9 6 18 19.2 137.9 950 0 9 -- Chart
1976 9 7 00 19.9 136.6 930 0 9 -- Chart
1976 9 7 06 20.7 135.0 920 0 9 -- Chart
1976 9 7 12 21.3 133.6 920 0 9 -- Chart
1976 9 7 18 21.8 132.4 915 0 9 -- Chart
1976 9 8 00 22.6 131.5 910 0 9 -- Chart
1976 9 8 06 23.5 130.6 915 0 9 -- Chart
1976 9 8 12 24.3 130.2 920 0 9 -- Chart
1976 9 8 18 25.2 129.5 925 0 9 -- Chart
1976 9 9 00 25.8 129.2 930 0 9 -- Chart
1976 9 9 06 26.5 128.8 935 0 9 -- Chart
1976 9 9 12 27.1 128.8 935 0 9 -- Chart
1976 9 9 18 27.9 129.0 940 0 9 -- Chart
1976 9 10 00 28.6 129.1 945 0 9 -- Chart
1976 9 10 06 29.4 129.3 945 0 9 -- Chart
1976 9 10 12 29.9 129.0 945 0 9 -- Chart
1976 9 10 18 30.1 129.5 945 0 9 -- Chart
1976 9 11 00 30.3 129.3 950 0 9 -- Chart
1976 9 11 06 30.3 129.3 955 0 9 -- Chart
1976 9 11 12 29.8 129.1 960 0 9 -- Chart
1976 9 11 18 29.7 128.7 960 0 9 -- Chart
1976 9 12 00 30.4 128.8 955 0 9 -- Chart
1976 9 12 06 31.0 128.8 955 0 9 -- Chart
1976 9 12 12 31.8 129.3 955 0 9 -- Chart
1976 9 12 18 33.1 130.0 965 0 9 -- Chart
1976 9 13 00 35.0 131.2 975 0 9 -- Chart
1976 9 13 06 37.0 133.0 975 0 9 -- Chart
1976 9 13 12 39.0 135.0 980 0 9 -- Chart
1976 9 13 18 40.5 135.5 985 0 9 -- Chart
1976 9 14 00 42.0 135.0 990 0 6 -- Chart
1976 9 14 06 43.0 136.0 988 0 6 -- Chart
1976 9 14 12 44.0 137.0 990 0 6 -- Chart
1976 9 14 18 44.0 137.0 998 0 6 -- Chart
1976 9 15 00 44.0 137.0 996 0 6 -- Chart
1976 9 15 06 44.0 139.0 1000 0 6 -- Chart
1976 9 15 12 44.0 139.0 1004 0 6 -- Chart
1976 9 15 18 43.0 139.0 1018 0 6 -- Chart
1976 9 16 00 41.9 138.0 1010 0 6 -- Chart
1976 9 16 06 40.0 138.0 1008 0 6 -- Chart
Japan Meteorological Agency Best Track Data | Correction Date : 2013-03-19
< Typhoon 197616 1976 Season Typhoon 197618 >

Help